sensor_id;sensor_type;location;lat;lon;timestamp;P1;durP1;ratioP1;P2;durP2;ratioP2
65715;SDS011;63484;52.054;8.518;2022-10-26T00:04:34;16.88;;;7.97;;
65715;SDS011;63484;52.054;8.518;2022-10-26T00:09:35;17.13;;;7.97;;
65715;SDS011;63484;52.054;8.518;2022-10-26T00:14:35;14.00;;;7.07;;
65715;SDS011;63484;52.054;8.518;2022-10-26T00:19:36;20.23;;;7.38;;
65715;SDS011;63484;52.054;8.518;2022-10-26T00:24:37;13.70;;;6.88;;
65715;SDS011;63484;52.054;8.518;2022-10-26T00:29:37;11.88;;;6.68;;
65715;SDS011;63484;52.054;8.518;2022-10-26T00:34:37;14.57;;;7.32;;
65715;SDS011;63484;52.054;8.518;2022-10-26T00:39:38;14.57;;;6.93;;
65715;SDS011;63484;52.054;8.518;2022-10-26T00:49:48;16.55;;;7.20;;
65715;SDS011;63484;52.054;8.518;2022-10-26T00:54:51;21.50;;;7.68;;
65715;SDS011;63484;52.054;8.518;2022-10-26T00:59:53;14.95;;;7.55;;
65715;SDS011;63484;52.054;8.518;2022-10-26T01:04:56;14.87;;;7.00;;
65715;SDS011;63484;52.054;8.518;2022-10-26T01:09:57;11.45;;;5.97;;
65715;SDS011;63484;52.054;8.518;2022-10-26T01:14:58;11.13;;;6.93;;
65715;SDS011;63484;52.054;8.518;2022-10-26T01:30:38;15.60;;;7.07;;
65715;SDS011;63484;52.054;8.518;2022-10-26T01:40:58;12.07;;;7.28;;
65715;SDS011;63484;52.054;8.518;2022-10-26T01:46:05;17.80;;;6.97;;
65715;SDS011;63484;52.054;8.518;2022-10-26T01:51:08;12.70;;;6.90;;
65715;SDS011;63484;52.054;8.518;2022-10-26T01:56:20;11.27;;;6.65;;
65715;SDS011;63484;52.054;8.518;2022-10-26T02:06:59;15.70;;;7.20;;
65715;SDS011;63484;52.054;8.518;2022-10-26T02:12:05;13.20;;;6.50;;
65715;SDS011;63484;52.054;8.518;2022-10-26T02:17:19;14.13;;;7.00;;
65715;SDS011;63484;52.054;8.518;2022-10-26T02:22:34;10.45;;;6.43;;
65715;SDS011;63484;52.054;8.518;2022-10-26T02:27:39;12.05;;;5.68;;
65715;SDS011;63484;52.054;8.518;2022-10-26T02:32:44;9.07;;;5.15;;
65715;SDS011;63484;52.054;8.518;2022-10-26T02:37:49;13.48;;;6.47;;
65715;SDS011;63484;52.054;8.518;2022-10-26T02:42:52;9.32;;;5.93;;
65715;SDS011;63484;52.054;8.518;2022-10-26T02:47:55;14.68;;;6.65;;
65715;SDS011;63484;52.054;8.518;2022-10-26T02:53:00;12.07;;;6.85;;
65715;SDS011;63484;52.054;8.518;2022-10-26T02:58:05;14.50;;;6.22;;
65715;SDS011;63484;52.054;8.518;2022-10-26T03:03:12;9.63;;;6.13;;
65715;SDS011;63484;52.054;8.518;2022-10-26T03:08:13;13.00;;;6.45;;
65715;SDS011;63484;52.054;8.518;2022-10-26T03:13:14;12.60;;;6.55;;
65715;SDS011;63484;52.054;8.518;2022-10-26T03:18:14;11.55;;;5.97;;
65715;SDS011;63484;52.054;8.518;2022-10-26T03:23:14;12.48;;;6.13;;
65715;SDS011;63484;52.054;8.518;2022-10-26T03:28:15;12.88;;;6.18;;
65715;SDS011;63484;52.054;8.518;2022-10-26T03:33:15;12.07;;;6.47;;
65715;SDS011;63484;52.054;8.518;2022-10-26T03:38:16;11.30;;;6.15;;
65715;SDS011;63484;52.054;8.518;2022-10-26T03:43:16;10.82;;;5.90;;
65715;SDS011;63484;52.054;8.518;2022-10-26T03:48:16;12.73;;;5.85;;
65715;SDS011;63484;52.054;8.518;2022-10-26T03:53:17;11.73;;;5.95;;
65715;SDS011;63484;52.054;8.518;2022-10-26T03:58:17;10.57;;;6.13;;
65715;SDS011;63484;52.054;8.518;2022-10-26T04:03:17;11.00;;;6.20;;
65715;SDS011;63484;52.054;8.518;2022-10-26T04:08:18;12.95;;;6.32;;
65715;SDS011;63484;52.054;8.518;2022-10-26T04:13:18;10.55;;;6.07;;
65715;SDS011;63484;52.054;8.518;2022-10-26T04:18:19;19.40;;;6.45;;
65715;SDS011;63484;52.054;8.518;2022-10-26T04:23:19;11.32;;;6.00;;
65715;SDS011;63484;52.054;8.518;2022-10-26T04:28:20;10.52;;;6.32;;
65715;SDS011;63484;52.054;8.518;2022-10-26T04:33:20;12.52;;;6.18;;
65715;SDS011;63484;52.054;8.518;2022-10-26T04:38:21;9.55;;;5.45;;
65715;SDS011;63484;52.054;8.518;2022-10-26T04:43:21;13.77;;;6.03;;
65715;SDS011;63484;52.054;8.518;2022-10-26T04:48:21;12.07;;;6.22;;
65715;SDS011;63484;52.054;8.518;2022-10-26T04:53:22;12.80;;;5.93;;
65715;SDS011;63484;52.054;8.518;2022-10-26T04:58:23;17.15;;;6.95;;
65715;SDS011;63484;52.054;8.518;2022-10-26T05:03:23;10.45;;;5.90;;
65715;SDS011;63484;52.054;8.518;2022-10-26T05:08:23;11.20;;;5.95;;
65715;SDS011;63484;52.054;8.518;2022-10-26T05:13:24;12.50;;;5.85;;
65715;SDS011;63484;52.054;8.518;2022-10-26T05:18:24;14.15;;;6.07;;
65715;SDS011;63484;52.054;8.518;2022-10-26T05:23:25;14.43;;;5.70;;
65715;SDS011;63484;52.054;8.518;2022-10-26T05:28:25;9.57;;;5.95;;
65715;SDS011;63484;52.054;8.518;2022-10-26T05:33:26;9.18;;;5.40;;
65715;SDS011;63484;52.054;8.518;2022-10-26T05:38:26;12.65;;;6.47;;
65715;SDS011;63484;52.054;8.518;2022-10-26T05:43:26;11.02;;;6.55;;
65715;SDS011;63484;52.054;8.518;2022-10-26T05:48:30;11.95;;;6.25;;
65715;SDS011;63484;52.054;8.518;2022-10-26T05:53:30;12.00;;;6.25;;
65715;SDS011;63484;52.054;8.518;2022-10-26T05:58:31;15.48;;;7.20;;
65715;SDS011;63484;52.054;8.518;2022-10-26T06:03:36;13.25;;;7.40;;
65715;SDS011;63484;52.054;8.518;2022-10-26T06:08:39;17.88;;;7.22;;
65715;SDS011;63484;52.054;8.518;2022-10-26T06:13:42;11.52;;;6.55;;
65715;SDS011;63484;52.054;8.518;2022-10-26T06:18:45;14.32;;;7.80;;
65715;SDS011;63484;52.054;8.518;2022-10-26T06:23:52;12.95;;;6.47;;
65715;SDS011;63484;52.054;8.518;2022-10-26T06:34:05;12.43;;;6.68;;
65715;SDS011;63484;52.054;8.518;2022-10-26T06:39:10;18.38;;;7.00;;
65715;SDS011;63484;52.054;8.518;2022-10-26T06:44:20;11.85;;;6.45;;
65715;SDS011;63484;52.054;8.518;2022-10-26T06:49:26;12.65;;;6.70;;
65715;SDS011;63484;52.054;8.518;2022-10-26T06:59:52;15.98;;;7.00;;
65715;SDS011;63484;52.054;8.518;2022-10-26T07:04:56;15.95;;;7.60;;
65715;SDS011;63484;52.054;8.518;2022-10-26T07:09:56;18.35;;;7.80;;
65715;SDS011;63484;52.054;8.518;2022-10-26T07:14:57;20.85;;;8.45;;
65715;SDS011;63484;52.054;8.518;2022-10-26T07:19:57;17.00;;;7.97;;
65715;SDS011;63484;52.054;8.518;2022-10-26T07:24:57;22.15;;;7.75;;
65715;SDS011;63484;52.054;8.518;2022-10-26T07:29:58;18.20;;;7.85;;
65715;SDS011;63484;52.054;8.518;2022-10-26T07:34:58;16.10;;;7.57;;
65715;SDS011;63484;52.054;8.518;2022-10-26T07:39:58;25.83;;;8.32;;
65715;SDS011;63484;52.054;8.518;2022-10-26T07:44:59;21.02;;;7.93;;
65715;SDS011;63484;52.054;8.518;2022-10-26T07:49:59;14.52;;;6.90;;
65715;SDS011;63484;52.054;8.518;2022-10-26T07:55:00;13.18;;;6.97;;
65715;SDS011;63484;52.054;8.518;2022-10-26T08:00:00;11.05;;;5.68;;
65715;SDS011;63484;52.054;8.518;2022-10-26T08:05:01;13.45;;;5.90;;
65715;SDS011;63484;52.054;8.518;2022-10-26T08:10:01;12.85;;;5.60;;
65715;SDS011;63484;52.054;8.518;2022-10-26T08:15:03;9.35;;;5.53;;
65715;SDS011;63484;52.054;8.518;2022-10-26T08:20:04;10.38;;;6.10;;
65715;SDS011;63484;52.054;8.518;2022-10-26T08:25:05;13.25;;;6.45;;
65715;SDS011;63484;52.054;8.518;2022-10-26T08:30:05;11.90;;;6.65;;
65715;SDS011;63484;52.054;8.518;2022-10-26T08:35:06;13.25;;;6.40;;
65715;SDS011;63484;52.054;8.518;2022-10-26T08:40:10;13.70;;;6.78;;
65715;SDS011;63484;52.054;8.518;2022-10-26T08:50:38;11.98;;;7.22;;
65715;SDS011;63484;52.054;8.518;2022-10-26T08:55:44;11.30;;;6.68;;
65715;SDS011;63484;52.054;8.518;2022-10-26T09:00:48;14.75;;;6.43;;
65715;SDS011;63484;52.054;8.518;2022-10-26T09:06:35;11.40;;;5.85;;
65715;SDS011;63484;52.054;8.518;2022-10-26T09:16:35;13.27;;;5.90;;
65715;SDS011;63484;52.054;8.518;2022-10-26T09:32:40;9.85;;;4.80;;
65715;SDS011;63484;52.054;8.518;2022-10-26T09:37:47;10.95;;;4.80;;
65715;SDS011;63484;52.054;8.518;2022-10-26T09:42:55;10.45;;;5.32;;
65715;SDS011;63484;52.054;8.518;2022-10-26T09:48:11;14.93;;;5.72;;
65715;SDS011;63484;52.054;8.518;2022-10-26T09:53:15;9.52;;;5.45;;
65715;SDS011;63484;52.054;8.518;2022-10-26T09:58:19;13.18;;;4.95;;
65715;SDS011;63484;52.054;8.518;2022-10-26T10:03:26;8.32;;;4.30;;
65715;SDS011;63484;52.054;8.518;2022-10-26T10:08:28;7.93;;;3.65;;
65715;SDS011;63484;52.054;8.518;2022-10-26T10:13:30;7.00;;;3.55;;
65715;SDS011;63484;52.054;8.518;2022-10-26T10:18:32;6.73;;;3.13;;
65715;SDS011;63484;52.054;8.518;2022-10-26T10:23:46;12.45;;;4.45;;
65715;SDS011;63484;52.054;8.518;2022-10-26T10:28:56;8.32;;;3.33;;
65715;SDS011;63484;52.054;8.518;2022-10-26T10:33:58;9.10;;;3.05;;
65715;SDS011;63484;52.054;8.518;2022-10-26T10:38:59;13.43;;;3.30;;
65715;SDS011;63484;52.054;8.518;2022-10-26T10:49:26;11.75;;;2.80;;
65715;SDS011;63484;52.054;8.518;2022-10-26T10:54:32;4.90;;;2.47;;
65715;SDS011;63484;52.054;8.518;2022-10-26T10:59:50;5.88;;;2.38;;
65715;SDS011;63484;52.054;8.518;2022-10-26T11:10:31;3.67;;;1.88;;
65715;SDS011;63484;52.054;8.518;2022-10-26T11:15:36;8.30;;;2.08;;
65715;SDS011;63484;52.054;8.518;2022-10-26T11:20:42;4.97;;;1.70;;
65715;SDS011;63484;52.054;8.518;2022-10-26T11:25:49;6.72;;;1.92;;
65715;SDS011;63484;52.054;8.518;2022-10-26T11:30:59;6.55;;;1.52;;
65715;SDS011;63484;52.054;8.518;2022-10-26T11:36:07;6.03;;;1.60;;
65715;SDS011;63484;52.054;8.518;2022-10-26T11:41:14;3.47;;;1.40;;
65715;SDS011;63484;52.054;8.518;2022-10-26T11:46:36;7.75;;;1.17;;
65715;SDS011;63484;52.054;8.518;2022-10-26T11:57:16;6.97;;;1.50;;
65715;SDS011;63484;52.054;8.518;2022-10-26T12:02:18;2.72;;;0.93;;
65715;SDS011;63484;52.054;8.518;2022-10-26T12:07:37;3.80;;;1.10;;
65715;SDS011;63484;52.054;8.518;2022-10-26T12:18:05;9.07;;;1.77;;
65715;SDS011;63484;52.054;8.518;2022-10-26T12:23:09;4.32;;;1.45;;
65715;SDS011;63484;52.054;8.518;2022-10-26T12:28:37;6.93;;;1.45;;
65715;SDS011;63484;52.054;8.518;2022-10-26T12:33:49;3.67;;;1.52;;
65715;SDS011;63484;52.054;8.518;2022-10-26T12:43:54;26.65;;;3.33;;
65715;SDS011;63484;52.054;8.518;2022-10-26T12:48:56;4.72;;;1.77;;
65715;SDS011;63484;52.054;8.518;2022-10-26T12:59:41;4.45;;;1.45;;
65715;SDS011;63484;52.054;8.518;2022-10-26T13:04:51;4.60;;;1.30;;
65715;SDS011;63484;52.054;8.518;2022-10-26T13:10:21;10.27;;;1.77;;
65715;SDS011;63484;52.054;8.518;2022-10-26T13:20:30;6.63;;;1.67;;
65715;SDS011;63484;52.054;8.518;2022-10-26T13:25:32;17.00;;;2.00;;
65715;SDS011;63484;52.054;8.518;2022-10-26T13:35:33;9.38;;;1.55;;
65715;SDS011;63484;52.054;8.518;2022-10-26T13:40:34;4.05;;;1.60;;
65715;SDS011;63484;52.054;8.518;2022-10-26T13:45:40;8.10;;;1.88;;
65715;SDS011;63484;52.054;8.518;2022-10-26T14:01:17;7.03;;;1.40;;
65715;SDS011;63484;52.054;8.518;2022-10-26T14:11:42;13.55;;;1.75;;
65715;SDS011;63484;52.054;8.518;2022-10-26T14:16:43;10.88;;;2.20;;
65715;SDS011;63484;52.054;8.518;2022-10-26T14:21:45;6.32;;;2.15;;
65715;SDS011;63484;52.054;8.518;2022-10-26T14:26:49;5.00;;;1.80;;
65715;SDS011;63484;52.054;8.518;2022-10-26T14:31:49;4.93;;;1.60;;
65715;SDS011;63484;52.054;8.518;2022-10-26T14:36:54;9.00;;;2.00;;
65715;SDS011;63484;52.054;8.518;2022-10-26T14:41:59;7.85;;;1.80;;
65715;SDS011;63484;52.054;8.518;2022-10-26T14:47:03;6.03;;;1.83;;
65715;SDS011;63484;52.054;8.518;2022-10-26T14:52:04;8.00;;;1.95;;
65715;SDS011;63484;52.054;8.518;2022-10-26T14:57:24;4.82;;;1.70;;
65715;SDS011;63484;52.054;8.518;2022-10-26T15:02:30;9.45;;;1.80;;
65715;SDS011;63484;52.054;8.518;2022-10-26T15:07:36;8.05;;;1.90;;
65715;SDS011;63484;52.054;8.518;2022-10-26T15:12:37;9.07;;;2.65;;
65715;SDS011;63484;52.054;8.518;2022-10-26T15:17:39;5.30;;;2.28;;
65715;SDS011;63484;52.054;8.518;2022-10-26T15:22:41;7.03;;;1.70;;
65715;SDS011;63484;52.054;8.518;2022-10-26T15:27:48;6.95;;;2.28;;
65715;SDS011;63484;52.054;8.518;2022-10-26T15:32:51;10.50;;;2.03;;
65715;SDS011;63484;52.054;8.518;2022-10-26T15:37:53;8.07;;;1.73;;
65715;SDS011;63484;52.054;8.518;2022-10-26T15:42:57;4.55;;;1.65;;
65715;SDS011;63484;52.054;8.518;2022-10-26T15:47:58;12.00;;;1.70;;
65715;SDS011;63484;52.054;8.518;2022-10-26T15:53:16;6.25;;;1.63;;
65715;SDS011;63484;52.054;8.518;2022-10-26T15:58:19;8.45;;;1.42;;
65715;SDS011;63484;52.054;8.518;2022-10-26T16:03:21;8.05;;;2.65;;
65715;SDS011;63484;52.054;8.518;2022-10-26T16:08:24;9.30;;;2.63;;
65715;SDS011;63484;52.054;8.518;2022-10-26T16:13:26;15.37;;;3.47;;
65715;SDS011;63484;52.054;8.518;2022-10-26T16:18:27;10.68;;;3.10;;
65715;SDS011;63484;52.054;8.518;2022-10-26T16:23:27;5.50;;;2.70;;
65715;SDS011;63484;52.054;8.518;2022-10-26T16:28:27;5.90;;;2.08;;
65715;SDS011;63484;52.054;8.518;2022-10-26T16:33:28;8.32;;;2.28;;
65715;SDS011;63484;52.054;8.518;2022-10-26T16:38:29;9.93;;;2.50;;
65715;SDS011;63484;52.054;8.518;2022-10-26T16:43:31;3.60;;;1.95;;
65715;SDS011;63484;52.054;8.518;2022-10-26T16:48:39;8.57;;;2.20;;
65715;SDS011;63484;52.054;8.518;2022-10-26T16:53:41;3.75;;;1.77;;
65715;SDS011;63484;52.054;8.518;2022-10-26T16:58:42;15.93;;;6.30;;
65715;SDS011;63484;52.054;8.518;2022-10-26T17:03:43;15.63;;;6.05;;
65715;SDS011;63484;52.054;8.518;2022-10-26T17:08:44;5.53;;;2.40;;
65715;SDS011;63484;52.054;8.518;2022-10-26T17:13:46;4.95;;;2.28;;
65715;SDS011;63484;52.054;8.518;2022-10-26T17:18:47;5.03;;;2.20;;
65715;SDS011;63484;52.054;8.518;2022-10-26T17:23:48;4.45;;;2.25;;
65715;SDS011;63484;52.054;8.518;2022-10-26T17:28:51;8.35;;;2.20;;
65715;SDS011;63484;52.054;8.518;2022-10-26T17:33:54;5.80;;;2.03;;
65715;SDS011;63484;52.054;8.518;2022-10-26T17:38:56;11.75;;;4.90;;
65715;SDS011;63484;52.054;8.518;2022-10-26T17:43:56;6.72;;;3.50;;
65715;SDS011;63484;52.054;8.518;2022-10-26T17:48:57;5.47;;;2.55;;
65715;SDS011;63484;52.054;8.518;2022-10-26T17:53:59;4.53;;;2.47;;
65715;SDS011;63484;52.054;8.518;2022-10-26T17:59:00;6.13;;;3.10;;
65715;SDS011;63484;52.054;8.518;2022-10-26T18:04:03;9.52;;;3.33;;
65715;SDS011;63484;52.054;8.518;2022-10-26T18:09:03;6.72;;;2.40;;
65715;SDS011;63484;52.054;8.518;2022-10-26T18:14:04;9.05;;;2.60;;
65715;SDS011;63484;52.054;8.518;2022-10-26T18:19:04;5.00;;;2.22;;
65715;SDS011;63484;52.054;8.518;2022-10-26T18:24:05;23.52;;;8.63;;
65715;SDS011;63484;52.054;8.518;2022-10-26T18:29:06;15.07;;;5.30;;
65715;SDS011;63484;52.054;8.518;2022-10-26T18:34:08;4.63;;;2.42;;
65715;SDS011;63484;52.054;8.518;2022-10-26T18:39:09;4.93;;;2.30;;
65715;SDS011;63484;52.054;8.518;2022-10-26T18:44:09;5.53;;;2.78;;
65715;SDS011;63484;52.054;8.518;2022-10-26T18:49:10;7.00;;;2.75;;
65715;SDS011;63484;52.054;8.518;2022-10-26T18:54:11;10.30;;;3.15;;
65715;SDS011;63484;52.054;8.518;2022-10-26T18:59:11;7.03;;;3.70;;
65715;SDS011;63484;52.054;8.518;2022-10-26T19:04:12;5.60;;;2.92;;
65715;SDS011;63484;52.054;8.518;2022-10-26T19:09:13;8.65;;;3.55;;
65715;SDS011;63484;52.054;8.518;2022-10-26T19:14:15;12.73;;;5.40;;
65715;SDS011;63484;52.054;8.518;2022-10-26T19:19:15;11.20;;;5.22;;
65715;SDS011;63484;52.054;8.518;2022-10-26T19:24:18;12.02;;;5.07;;
65715;SDS011;63484;52.054;8.518;2022-10-26T19:29:21;10.13;;;4.35;;
65715;SDS011;63484;52.054;8.518;2022-10-26T19:34:21;7.10;;;4.18;;
65715;SDS011;63484;52.054;8.518;2022-10-26T19:39:23;8.77;;;4.10;;
65715;SDS011;63484;52.054;8.518;2022-10-26T19:44:23;11.85;;;4.18;;
65715;SDS011;63484;52.054;8.518;2022-10-26T19:49:24;8.82;;;3.70;;
65715;SDS011;63484;52.054;8.518;2022-10-26T19:54:24;9.73;;;3.40;;
65715;SDS011;63484;52.054;8.518;2022-10-26T19:59:25;6.35;;;2.60;;
65715;SDS011;63484;52.054;8.518;2022-10-26T20:04:25;6.47;;;2.78;;
65715;SDS011;63484;52.054;8.518;2022-10-26T20:09:26;8.20;;;2.63;;
65715;SDS011;63484;52.054;8.518;2022-10-26T20:14:26;9.05;;;3.00;;
65715;SDS011;63484;52.054;8.518;2022-10-26T20:19:27;8.60;;;3.25;;
65715;SDS011;63484;52.054;8.518;2022-10-26T20:24:27;9.43;;;2.90;;
65715;SDS011;63484;52.054;8.518;2022-10-26T20:29:27;8.32;;;2.88;;
65715;SDS011;63484;52.054;8.518;2022-10-26T20:34:28;6.25;;;2.60;;
65715;SDS011;63484;52.054;8.518;2022-10-26T20:39:28;7.25;;;3.22;;
65715;SDS011;63484;52.054;8.518;2022-10-26T20:44:30;7.90;;;3.55;;
65715;SDS011;63484;52.054;8.518;2022-10-26T20:49:36;7.35;;;3.13;;
65715;SDS011;63484;52.054;8.518;2022-10-26T20:54:38;6.47;;;2.97;;
65715;SDS011;63484;52.054;8.518;2022-10-26T20:59:48;8.73;;;3.30;;
65715;SDS011;63484;52.054;8.518;2022-10-26T21:04:51;6.72;;;3.58;;
65715;SDS011;63484;52.054;8.518;2022-10-26T21:09:51;7.00;;;3.20;;
65715;SDS011;63484;52.054;8.518;2022-10-26T21:14:52;5.00;;;2.17;;
65715;SDS011;63484;52.054;8.518;2022-10-26T21:19:52;6.97;;;2.78;;
65715;SDS011;63484;52.054;8.518;2022-10-26T21:24:52;6.15;;;3.10;;
65715;SDS011;63484;52.054;8.518;2022-10-26T21:29:53;8.50;;;2.97;;
65715;SDS011;63484;52.054;8.518;2022-10-26T21:34:53;8.23;;;3.33;;
65715;SDS011;63484;52.054;8.518;2022-10-26T21:39:53;5.88;;;2.65;;
65715;SDS011;63484;52.054;8.518;2022-10-26T21:44:54;9.30;;;3.30;;
65715;SDS011;63484;52.054;8.518;2022-10-26T21:49:54;6.25;;;2.67;;
65715;SDS011;63484;52.054;8.518;2022-10-26T21:54:55;7.22;;;2.58;;
65715;SDS011;63484;52.054;8.518;2022-10-26T21:59:55;6.63;;;2.63;;
65715;SDS011;63484;52.054;8.518;2022-10-26T22:04:55;9.95;;;2.90;;
65715;SDS011;63484;52.054;8.518;2022-10-26T22:09:56;5.25;;;2.45;;
65715;SDS011;63484;52.054;8.518;2022-10-26T22:14:56;6.55;;;2.40;;
65715;SDS011;63484;52.054;8.518;2022-10-26T22:19:56;5.68;;;3.25;;
65715;SDS011;63484;52.054;8.518;2022-10-26T22:24:57;6.63;;;2.95;;
65715;SDS011;63484;52.054;8.518;2022-10-26T22:29:57;6.53;;;3.10;;
65715;SDS011;63484;52.054;8.518;2022-10-26T22:34:58;9.35;;;4.03;;
65715;SDS011;63484;52.054;8.518;2022-10-26T22:39:58;10.40;;;3.20;;
65715;SDS011;63484;52.054;8.518;2022-10-26T22:44:58;7.30;;;3.13;;
65715;SDS011;63484;52.054;8.518;2022-10-26T22:49:59;10.68;;;3.72;;
65715;SDS011;63484;52.054;8.518;2022-10-26T22:54:59;7.45;;;3.97;;
65715;SDS011;63484;52.054;8.518;2022-10-26T23:00:00;15.95;;;4.63;;
65715;SDS011;63484;52.054;8.518;2022-10-26T23:05:00;10.60;;;4.20;;
65715;SDS011;63484;52.054;8.518;2022-10-26T23:10:01;6.18;;;4.10;;
65715;SDS011;63484;52.054;8.518;2022-10-26T23:15:02;9.45;;;4.40;;
65715;SDS011;63484;52.054;8.518;2022-10-26T23:20:02;9.27;;;4.28;;
65715;SDS011;63484;52.054;8.518;2022-10-26T23:25:03;9.75;;;5.07;;
65715;SDS011;63484;52.054;8.518;2022-10-26T23:30:04;11.90;;;4.63;;
65715;SDS011;63484;52.054;8.518;2022-10-26T23:35:05;6.55;;;4.05;;
65715;SDS011;63484;52.054;8.518;2022-10-26T23:40:06;16.98;;;5.00;;
65715;SDS011;63484;52.054;8.518;2022-10-26T23:45:07;9.25;;;4.20;;
65715;SDS011;63484;52.054;8.518;2022-10-26T23:50:07;8.18;;;4.53;;
65715;SDS011;63484;52.054;8.518;2022-10-26T23:55:08;9.88;;;4.45;;
